METAR Data
IDs: Format: Raw Decoded Include TAF

Data at: 1512 UTC 21 May 2019

KLRJ 211455Z AUTO 10018G26KT 3SM -RA BKN013 BKN018 OVC027 09/09 A2985 RMK AO2 P0003
KLRJ 211435Z AUTO 09018G26KT 3SM -RA OVC014 09/09 A2986 RMK AO2
KLRJ 211415Z AUTO 09016G26KT 10SM BKN016 OVC085 09/09 A2986 RMK AO2
KLRJ 211355Z AUTO 08016G22KT 8SM SCT013 SCT021 BKN048 09/09 A2985 RMK AO2
KLRJ 211335Z AUTO 09017G24KT 6SM BR SCT013 SCT021 BKN030 09/09 A2986 RMK AO2
KLRJ 211315Z AUTO 09012G20KT 3SM BR FEW012 SCT020 BKN029 09/09 A2987 RMK AO2
KLRJ 211255Z AUTO 09015KT 3SM -RA BKN020 OVC028 09/08 A2988 RMK AO2 P0001
KLRJ 211235Z AUTO 09012G21KT 7SM OVC023 09/08 A2989 RMK AO2
KLRJ 211215Z AUTO 10012G17KT 10SM SCT024 SCT046 OVC060 10/07 A2990 RMK AO2
KLRJ 211155Z AUTO 09014G21KT 10SM FEW046 BKN060 OVC070 09/07 A2989 RMK AO2
KLRJ 211135Z AUTO 09012KT 10SM SCT046 BKN060 OVC070 10/07 A2989 RMK AO2
KLRJ 211115Z AUTO 09013G18KT 10SM BKN055 OVC065 10/07 A2989 RMK AO2
KLRJ 211055Z AUTO 09014G25KT 10SM OVC050 10/06 A2990 RMK AO2
KLRJ 211035Z AUTO 09016G24KT 10SM FEW041 OVC050 10/06 A2990 RMK AO2
KLRJ 211015Z AUTO 09013G20KT 10SM BKN041 OVC050 10/07 A2991 RMK AO2
KLRJ 210955Z AUTO 08014KT 10SM OVC055 10/07 A2992 RMK AO2
KLRJ 210935Z AUTO 08013G19KT 10SM OVC055 11/07 A2992 RMK AO2
KLRJ 210915Z AUTO 08010G18KT 10SM OVC055 11/07 A2993 RMK AO2
KLRJ 210855Z AUTO 08011G17KT 10SM OVC049 11/07 A2994 RMK AO2
KLRJ 210835Z AUTO 08012KT 10SM OVC050 11/06 A2996 RMK AO2
KLRJ 210815Z AUTO 07010G16KT 030V100 10SM OVC050 11/06 A2994 RMK AO2
KLRJ 210755Z AUTO 07014G19KT 10SM BKN055 OVC070 11/06 A2993 RMK AO2
KLRJ 210735Z AUTO 08008G16KT 10SM OVC055 11/06 A2995 RMK AO2
KLRJ 210715Z AUTO 07010G17KT 10SM OVC060 11/06 A2996 RMK AO2
KLRJ 210655Z AUTO 07010KT 10SM OVC060 11/06 A2997 RMK AO2
KLRJ 210635Z AUTO 07011G18KT 10SM SCT065 OVC080 11/06 A2998 RMK AO2
KLRJ 210615Z AUTO 07008KT 10SM OVC080 11/06 A3000 RMK AO2
KLRJ 210555Z AUTO 06007KT 10SM OVC085 11/06 A2999 RMK AO2
KLRJ 210535Z AUTO 06008KT 10SM OVC090 11/06 A3000 RMK AO2
KLRJ 210515Z AUTO 06006KT 10SM OVC095 11/06 A3001 RMK AO2
KLRJ 210455Z AUTO 06008KT 10SM OVC095 12/06 A3001 RMK AO2
KLRJ 210435Z AUTO 06009KT 10SM OVC100 12/06 A3000 RMK AO2
KLRJ 210415Z AUTO 06010KT 10SM OVC095 12/05 A3000 RMK AO2
KLRJ 210355Z AUTO 06010G15KT 10SM OVC095 12/05 A2999 RMK AO2
KLRJ 210335Z AUTO 06009KT 10SM SCT080 OVC095 12/05 A3000 RMK AO2
KLRJ 210315Z AUTO 07008KT 10SM BKN075 OVC090 12/05 A3001 RMK AO2
KLRJ 210255Z AUTO 08009KT 10SM FEW080 OVC090 12/05 A3002 RMK AO2
KLRJ 210235Z AUTO 09010KT 10SM OVC090 12/05 A3002 RMK AO2
KLRJ 210215Z AUTO 09007KT 10SM OVC090 12/05 A3002 RMK AO2
KLRJ 210155Z AUTO 09008G14KT 10SM OVC090 12/04 A3002 RMK AO2
KLRJ 210135Z AUTO 10009KT 10SM OVC090 13/04 A3002 RMK AO2
KLRJ 210115Z AUTO 11011KT 10SM OVC085 13/04 A3001 RMK AO2
KLRJ 210055Z AUTO 09007G12KT 10SM OVC080 13/04 A3000 RMK AO2
KLRJ 210035Z AUTO 10007KT 10SM OVC080 13/04 A3003 RMK AO2
KLRJ 210015Z AUTO 10008G15KT 10SM OVC075 13/03 A3004 RMK AO2
KLRJ 202355Z AUTO 11012KT 10SM OVC075 13/03 A3004 RMK AO2
KLRJ 202335Z AUTO 11011G19KT 10SM OVC075 13/03 A3004 RMK AO2
KLRJ 202315Z AUTO 09010G15KT 10SM BKN075 OVC100 13/03 A3006 RMK AO2
KLRJ 202255Z AUTO 11012KT 10SM FEW075 BKN100 14/03 A3007 RMK AO2
KLRJ 202235Z AUTO 11009G14KT 10SM OVC100 14/03 A3009 RMK AO2
KLRJ 202215Z AUTO 09009G15KT 10SM BKN100 14/03 A3009 RMK AO2
KLRJ 202155Z AUTO 12010KT 10SM FEW100 14/03 A3009 RMK AO2
KLRJ 202135Z AUTO 10007G15KT 10SM CLR 14/02 A3009 RMK AO2
KLRJ 202115Z AUTO 08011G17KT 060V120 10SM CLR 14/03 A3010 RMK AO2
KLRJ 202055Z AUTO 10010G16KT 10SM CLR 14/02 A3010 RMK AO2
KLRJ 202035Z AUTO 08011KT 10SM CLR 14/02 A3011 RMK AO2
KLRJ 202015Z AUTO 13008KT 10SM CLR 14/03 A3012 RMK AO2
KLRJ 201955Z AUTO 13009G15KT 10SM FEW048 13/02 A3013 RMK AO2
KLRJ 201935Z AUTO 09011KT 10SM FEW046 13/02 A3013 RMK AO2
KLRJ 201915Z AUTO 12013KT 10SM FEW045 13/03 A3014 RMK AO2
KLRJ 201855Z AUTO 13008G15KT 10SM FEW044 13/03 A3015 RMK AO2
KLRJ 201835Z AUTO 10013KT 10SM FEW043 13/03 A3014 RMK AO2
KLRJ 201815Z AUTO 09011KT 10SM FEW041 13/03 A3014 RMK AO2
KLRJ 201755Z AUTO 08009G21KT 10SM FEW041 12/03 A3014 RMK AO2
KLRJ 201735Z AUTO 11013G18KT 10SM CLR 12/02 A3016 RMK AO2
KLRJ 201715Z AUTO 11010G16KT 10SM CLR 12/03 A3016 RMK AO2
KLRJ 201655Z AUTO 09010G17KT 10SM CLR 11/03 A3016 RMK AO2
KLRJ 201635Z AUTO 09011G18KT 10SM CLR 11/03 A3015 RMK AO2
KLRJ 201615Z AUTO 08010G17KT 10SM CLR 11/03 A3015 RMK AO2
KLRJ 201555Z AUTO 07013KT 10SM CLR 10/03 A3015 RMK AO2
KLRJ 201535Z AUTO 05011KT 10SM CLR 10/04 A3015 RMK AO2
KLRJ 201515Z AUTO 05009KT 10SM CLR 09/04 A3017 RMK AO2
KLRJ 201455Z AUTO 07007G13KT 10SM CLR 09/04 A3018 RMK AO2
KLRJ 201435Z AUTO 05008KT 10SM CLR 08/04 A3017 RMK AO2
KLRJ 201415Z AUTO 04011G16KT 10SM CLR 08/04 A3017 RMK AO2
KLRJ 201355Z AUTO 03011KT 10SM FEW016 07/04 A3015 RMK AO2
KLRJ 201335Z AUTO 03011KT 10SM CLR 06/04 A3015 RMK AO2
KLRJ 201315Z AUTO 02012KT 10SM CLR 06/04 A3016 RMK AO2
KLRJ 201255Z AUTO 01010KT 10SM CLR 06/04 A3016 RMK AO2
KLRJ 201235Z AUTO 02007KT 10SM CLR 05/04 A3018 RMK AO2
KLRJ 201215Z AUTO 00000KT 10SM CLR 04/04 A3019 RMK AO2
KLRJ 201155Z AUTO 00000KT 10SM CLR 03/03 A3019 RMK AO2
KLRJ 201135Z AUTO 00000KT 10SM CLR 02/02 A3018 RMK AO2
KLRJ 201115Z AUTO 00000KT 10SM CLR 02/02 A3017 RMK AO2
KLRJ 201055Z AUTO 00000KT 10SM CLR 02/02 A3016 RMK AO2
KLRJ 201035Z AUTO 00000KT 10SM CLR 03/03 A3014 RMK AO2
KLRJ 201015Z AUTO 00000KT 10SM CLR 03/03 A3012 RMK AO2
KLRJ 200955Z AUTO 00000KT 10SM CLR 03/02 A3012 RMK AO2
KLRJ 200935Z AUTO 01004KT 10SM CLR 03/02 A3011 RMK AO2
KLRJ 200915Z AUTO 00000KT 10SM CLR 03/03 A3010 RMK AO2
KLRJ 200855Z AUTO 00000KT 10SM CLR 03/03 A3011 RMK AO2
KLRJ 200835Z AUTO 02004KT 10SM CLR 03/03 A3012 RMK AO2
KLRJ 200815Z AUTO 02006KT 10SM FEW070 04/03 A3011 RMK AO2
KLRJ 200755Z AUTO 04006KT 10SM BKN070 04/03 A3011 RMK AO2
KLRJ 200735Z AUTO 04005KT 10SM OVC070 05/03 A3011 RMK AO2
KLRJ 200715Z AUTO 02008KT 10SM OVC070 05/04 A3011 RMK AO2
KLRJ 200655Z AUTO 02007KT 10SM FEW015 OVC070 05/04 A3011 RMK AO2
KLRJ 200635Z AUTO 03009KT 10SM SCT015 OVC070 05/04 A3011 RMK AO2
KLRJ 200615Z AUTO 01009KT 10SM FEW017 FEW027 OVC070 05/04 A3011 RMK AO2
KLRJ 200555Z AUTO 02007KT 10SM BKN019 BKN027 OVC070 06/04 A3011 RMK AO2
KLRJ 200535Z AUTO 01009KT 10SM BKN019 OVC026 06/04 A3011 RMK AO2
KLRJ 200515Z AUTO 02009KT 10SM FEW016 BKN024 OVC060 05/04 A3010 RMK AO2
KLRJ 200455Z AUTO 02012KT 10SM FEW016 BKN024 OVC060 05/05 A3010 RMK AO2
KLRJ 200435Z AUTO 36013KT 10SM SCT019 OVC024 06/04 A3009 RMK AO2
KLRJ 200415Z AUTO 01009KT 10SM FEW016 SCT020 BKN026 06/05 A3008 RMK AO2
KLRJ 200355Z AUTO 03011KT 10SM SCT017 OVC025 06/04 A3007 RMK AO2
KLRJ 200335Z AUTO 02013KT 10SM BKN017 OVC024 06/05 A3005 RMK AO2
KLRJ 200315Z AUTO 01012KT 10SM SCT020 BKN026 OVC055 06/05 A3004 RMK AO2